Time;durP1;ratioP1;P1;durP2;ratioP2;P2;SDS_P1;SDS_P2;PMS_P1;PMS_P2;Temp;Humidity;BMP_temperature;BMP_pressure;BME280_temperature;BME280_humidity;BME280_pressure;Samples;Min_cycle;Max_cycle;Signal;HPM_P1;HPM_P2
2022/04/22 00:00:33;;;;;;;;;;;;;;;7.35;70.30;98144.98;108581;1271;25606;-70
2022/04/22 00:02:59;;;;;;;;;;;;;;;7.32;70.66;98143.62;108538;1271;22564;-71
2022/04/22 00:05:27;;;;;;;;;;;;;;;7.30;70.34;98138.37;108518;1271;22613;-73
2022/04/22 00:07:54;;;;;;;;;;;;;;;7.31;70.69;98137.63;108530;1271;22523;-70
2022/04/22 00:10:20;;;;;;;;;;;;;;;7.32;70.67;98137.77;108565;1271;25186;-70
2022/04/22 00:12:47;;;;;;;;;;;;;;;7.32;70.68;98132.01;108519;1270;22593;-70
2022/04/22 00:15:14;;;;;;;;;;;;;;;7.31;71.07;98133.80;108570;1271;22637;-70
2022/04/22 00:17:42;;;;;;;;;;;;;;;7.31;71.40;98134.49;108566;1271;22676;-70
2022/04/22 00:20:10;;;;;;;;;;;;;;;7.32;71.54;98132.02;108546;1271;23225;-70
2022/04/22 00:22:40;;;;;;;;;;;;;;;7.30;70.96;98133.48;108568;1271;25468;-70
2022/04/22 00:25:11;;;;;;;;;;;;;;;7.28;70.84;98130.89;108855;1271;22595;-70
2022/04/22 00:27:39;;;;;;;;;;;;;;;7.23;71.15;98129.77;108603;1271;22664;-70
2022/04/22 00:30:06;;;;;;;;;;;;;;;7.20;71.70;98125.65;108560;1271;24255;-71
2022/04/22 00:32:33;;;;;;;;;;;;;;;7.16;71.45;98122.88;108697;1271;22553;-70
2022/04/22 00:35:01;;;;;;;;;;;;;;;7.15;70.60;98122.30;108588;1271;22536;-71
2022/04/22 00:37:28;;;;;;;;;;;;;;;7.14;70.43;98123.21;108580;1271;22726;-70
2022/04/22 00:39:54;;;;;;;;;;;;;;;7.12;70.91;98120.20;108561;1271;22618;-72
2022/04/22 00:42:21;;;;;;;;;;;;;;;7.10;71.46;98120.15;108553;1271;22624;-70
2022/04/22 00:44:48;;;;;;;;;;;;;;;7.08;71.96;98126.85;108547;1271;22697;-70
2022/04/22 00:47:15;;;;;;;;;;;;;;;7.09;72.23;98124.35;108558;1271;22519;-70
2022/04/22 00:49:42;;;;;;;;;;;;;;;7.10;71.50;98122.92;108553;1271;22524;-71
2022/04/22 00:52:09;;;;;;;;;;;;;;;7.08;72.32;98125.30;108580;1271;22629;-72
2022/04/22 00:54:36;;;;;;;;;;;;;;;7.08;71.94;98126.31;108778;1271;22544;-70
2022/04/22 00:57:03;;;;;;;;;;;;;;;7.07;72.21;98123.23;108742;1271;22589;-70
2022/04/22 00:59:32;;;;;;;;;;;;;;;7.06;72.23;98120.23;108778;1271;22515;-71
2022/04/22 01:01:59;;;;;;;;;;;;;;;7.04;71.39;98118.42;108790;1271;22547;-72
2022/04/22 01:09:56;;;;;;;;;;;;;;;7.02;71.01;98117.66;108754;1271;22516;-73
2022/04/22 01:12:25;;;;;;;;;;;;;;;7.02;71.84;98111.63;108774;1271;22593;-72
2022/04/22 01:14:52;;;;;;;;;;;;;;;7.03;72.54;98109.30;108562;1271;22514;-71
2022/04/22 01:17:20;;;;;;;;;;;;;;;7.01;72.83;98111.32;108502;1271;22585;-70
2022/04/22 01:19:47;;;;;;;;;;;;;;;7.00;72.80;98108.80;108486;1271;22506;-71
2022/04/22 01:22:14;;;;;;;;;;;;;;;6.99;72.80;98107.27;108533;1271;22653;-70
2022/04/22 01:24:41;;;;;;;;;;;;;;;6.99;72.75;98107.97;108519;1271;22520;-71
2022/04/22 01:27:10;;;;;;;;;;;;;;;6.99;72.49;98106.42;108468;1271;22525;-70
2022/04/22 01:29:37;;;;;;;;;;;;;;;6.98;72.65;98101.98;108502;1271;22559;-69
2022/04/22 01:32:04;;;;;;;;;;;;;;;7.01;72.80;98099.73;108515;1271;22496;-69
2022/04/22 01:34:32;;;;;;;;;;;;;;;7.04;72.94;98093.49;108573;1270;22585;-70
2022/04/22 01:36:59;;;;;;;;;;;;;;;7.08;73.13;98094.30;108500;1271;22507;-70
2022/04/22 01:39:29;;;;;;;;;;;;;;;7.11;73.42;98092.70;108509;1271;23049;-70
2022/04/22 01:41:55;;;;;;;;;;;;;;;7.12;73.68;98091.09;108510;1271;22599;-70
2022/04/22 01:44:22;;;;;;;;;;;;;;;7.13;73.91;98087.10;108482;1271;22592;-71
2022/04/22 01:46:49;;;;;;;;;;;;;;;7.14;73.71;98088.74;108504;1271;26898;-69
2022/04/22 01:49:16;;;;;;;;;;;;;;;7.15;73.61;98087.48;108507;1271;24243;-70
2022/04/22 01:51:43;;;;;;;;;;;;;;;7.14;73.13;98087.34;108498;1271;22530;-70
2022/04/22 01:54:10;;;;;;;;;;;;;;;7.13;73.07;98090.54;108480;1271;22504;-70
2022/04/22 01:56:37;;;;;;;;;;;;;;;7.12;72.75;98091.99;108484;1271;22548;-71
2022/04/22 01:59:03;;;;;;;;;;;;;;;7.13;72.74;98094.86;108289;1271;243567;-70
2022/04/22 02:01:30;;;;;;;;;;;;;;;7.16;73.01;98089.83;108460;1271;25352;-71
2022/04/22 02:03:57;;;;;;;;;;;;;;;7.17;73.13;98088.37;108407;1271;22519;-70
2022/04/22 02:06:24;;;;;;;;;;;;;;;7.19;73.49;98087.23;108525;1271;23212;-71
2022/04/22 02:08:51;;;;;;;;;;;;;;;7.19;73.78;98082.38;108494;1271;22505;-72
2022/04/22 02:11:17;;;;;;;;;;;;;;;7.19;74.20;98082.55;108499;1271;22533;-70
2022/04/22 02:13:44;;;;;;;;;;;;;;;7.22;73.92;98082.74;108508;1271;22581;-71
2022/04/22 02:16:12;;;;;;;;;;;;;;;7.21;73.52;98076.02;108497;1271;23032;-71
2022/04/22 02:18:41;;;;;;;;;;;;;;;7.21;73.57;98074.16;108492;1271;22518;-71
2022/04/22 02:21:09;;;;;;;;;;;;;;;7.20;73.54;98074.55;108488;1271;22585;-70
2022/04/22 02:23:37;;;;;;;;;;;;;;;7.17;72.97;98069.86;108505;1271;22514;-71
2022/04/22 02:26:04;;;;;;;;;;;;;;;7.14;72.80;98062.08;108609;1271;22528;-71
2022/04/22 02:28:31;;;;;;;;;;;;;;;7.14;72.58;98058.27;108534;1271;25270;-73
2022/04/22 02:30:59;;;;;;;;;;;;;;;7.14;72.88;98060.54;108522;1271;22514;-71
2022/04/22 02:33:27;;;;;;;;;;;;;;;7.14;73.34;98063.09;108579;1271;22525;-70
2022/04/22 02:35:53;;;;;;;;;;;;;;;7.14;73.87;98059.65;108514;1271;22520;-70
2022/04/22 02:38:20;;;;;;;;;;;;;;;7.14;74.31;98060.85;108473;1271;22596;-71
2022/04/22 02:46:18;;;;;;;;;;;;;;;7.14;74.63;98063.47;108497;1271;24255;-71
2022/04/22 02:48:45;;;;;;;;;;;;;;;7.12;74.75;98062.17;108532;1271;23502;-70
2022/04/22 02:51:11;;;;;;;;;;;;;;;7.10;73.57;98063.02;108545;1271;22517;-72
2022/04/22 02:53:38;;;;;;;;;;;;;;;7.06;72.99;98063.80;108494;1271;22550;-71
2022/04/22 02:56:06;;;;;;;;;;;;;;;7.04;73.50;98061.80;108513;1271;25370;-71
2022/04/22 02:58:34;;;;;;;;;;;;;;;7.05;73.66;98061.59;108520;1271;22516;-71
2022/04/22 03:01:02;;;;;;;;;;;;;;;7.04;74.22;98060.43;108490;1271;22633;-74
2022/04/22 03:03:29;;;;;;;;;;;;;;;7.03;74.55;98057.37;108519;1271;25483;-72
2022/04/22 03:05:56;;;;;;;;;;;;;;;7.01;74.76;98054.02;108536;1271;22537;-71
2022/04/22 03:08:23;;;;;;;;;;;;;;;6.99;74.52;98051.41;108491;1271;22699;-70
2022/04/22 03:10:50;;;;;;;;;;;;;;;6.96;74.41;98049.00;108511;1271;22598;-70
2022/04/22 03:13:17;;;;;;;;;;;;;;;6.93;74.26;98044.16;108540;1271;23554;-73
2022/04/22 03:15:44;;;;;;;;;;;;;;;6.89;74.42;98041.08;108574;1271;22537;-70
2022/04/22 03:18:11;;;;;;;;;;;;;;;6.84;74.23;98041.55;108536;1271;22520;-73
2022/04/22 03:20:38;;;;;;;;;;;;;;;6.84;74.35;98040.70;108492;1271;22717;-71
2022/04/22 03:23:05;;;;;;;;;;;;;;;6.87;74.47;98040.54;108527;1271;22642;-70
2022/04/22 03:25:32;;;;;;;;;;;;;;;6.88;74.85;98040.09;108535;1271;22535;-75
2022/04/22 03:27:59;;;;;;;;;;;;;;;6.89;75.45;98035.40;108522;1271;22615;-70
2022/04/22 03:30:26;;;;;;;;;;;;;;;6.89;75.47;98033.63;108528;1271;23481;-71
2022/04/22 03:32:53;;;;;;;;;;;;;;;6.90;75.92;98028.23;108504;1271;24434;-74
2022/04/22 03:35:20;;;;;;;;;;;;;;;6.89;75.59;98026.05;108538;1271;22678;-70
2022/04/22 03:37:47;;;;;;;;;;;;;;;6.89;75.48;98026.73;108528;1271;22664;-72
2022/04/22 03:40:13;;;;;;;;;;;;;;;6.88;75.40;98028.83;108550;1271;22554;-71
2022/04/22 03:42:41;;;;;;;;;;;;;;;6.87;75.13;98026.14;108547;1271;22520;-71
2022/04/22 03:45:08;;;;;;;;;;;;;;;6.88;75.30;98023.17;108506;1271;24116;-72
2022/04/22 03:47:35;;;;;;;;;;;;;;;6.87;75.39;98017.00;108519;1271;22528;-71
2022/04/22 03:50:02;;;;;;;;;;;;;;;6.86;75.15;98006.86;108518;1271;22544;-71
2022/04/22 03:52:29;;;;;;;;;;;;;;;6.91;75.00;98005.33;108533;1271;22517;-71
2022/04/22 03:54:56;;;;;;;;;;;;;;;6.94;75.16;98003.73;108515;1271;22636;-70
2022/04/22 04:00:08;;;;;;;;;;;;;;;7.01;76.51;98000.20;108514;1271;22584;-70
2022/04/22 04:02:35;;;;;;;;;;;;;;;7.03;76.97;97997.98;108521;1271;22578;-71
2022/04/22 04:05:02;;;;;;;;;;;;;;;7.05;77.03;97997.20;108527;1271;22507;-70
2022/04/22 04:07:29;;;;;;;;;;;;;;;7.04;76.84;97995.02;108534;1271;25365;-71
2022/04/22 04:18:33;;;;;;;;;;;;;;;7.07;76.47;98007.41;108139;1276;22543;-70
2022/04/22 04:23:47;;;;;;;;;;;;;;;7.11;76.27;98005.64;108185;1277;22523;-71
2022/04/22 04:26:15;;;;;;;;;;;;;;;7.14;76.12;98008.23;108200;1277;22766;-70
2022/04/22 04:28:43;;;;;;;;;;;;;;;7.21;76.01;98006.98;108202;1277;22519;-70
2022/04/22 04:31:13;;;;;;;;;;;;;;;7.27;76.09;98010.21;108192;1277;22567;-72
2022/04/22 04:33:40;;;;;;;;;;;;;;;7.33;76.26;98013.45;108166;1277;25679;-70
2022/04/22 04:36:10;;;;;;;;;;;;;;;7.40;76.72;98015.98;108165;1277;22542;-70
2022/04/22 04:38:38;;;;;;;;;;;;;;;7.45;77.01;98019.45;108196;1277;22668;-70
2022/04/22 04:41:07;;;;;;;;;;;;;;;7.48;76.86;98023.61;108193;1276;24267;-70
2022/04/22 04:43:40;;;;;;;;;;;;;;;7.53;76.39;98025.55;108166;1274;23369;-70
2022/04/22 04:46:07;;;;;;;;;;;;;;;7.58;76.38;98028.36;108209;1274;24708;-71
2022/04/22 04:48:34;;;;;;;;;;;;;;;7.63;76.14;98028.23;108214;1271;22513;-73
2022/04/22 04:51:01;;;;;;;;;;;;;;;7.67;75.80;98030.60;108495;1271;22680;-71
2022/04/22 04:53:28;;;;;;;;;;;;;;;7.70;76.12;98029.85;108552;1271;22657;-71
2022/04/22 04:55:55;;;;;;;;;;;;;;;7.74;75.70;98032.55;108524;1271;22544;-70
2022/04/22 04:58:21;;;;;;;;;;;;;;;7.77;75.48;98034.48;108549;1271;22530;-70
2022/04/22 05:00:48;;;;;;;;;;;;;;;7.81;75.28;98034.70;108513;1271;22653;-71
2022/04/22 05:03:15;;;;;;;;;;;;;;;7.88;75.29;98029.02;108505;1271;24303;-73
2022/04/22 05:05:42;;;;;;;;;;;;;;;7.91;75.86;98034.59;108486;1271;22538;-72
2022/04/22 05:08:09;;;;;;;;;;;;;;;7.96;76.02;98038.62;108513;1271;22513;-73
2022/04/22 05:10:37;;;;;;;;;;;;;;;7.96;76.61;98037.77;108475;1271;22561;-70
2022/04/22 05:13:04;;;;;;;;;;;;;;;7.97;76.22;98036.98;108535;1270;22666;-70
2022/04/22 05:15:32;;;;;;;;;;;;;;;8.00;75.92;98033.87;108374;1271;24443;-71
2022/04/22 05:18:02;;;;;;;;;;;;;;;8.02;75.65;98036.17;108532;1271;22632;-70
2022/04/22 05:20:29;;;;;;;;;;;;;;;8.05;75.44;98032.59;108524;1271;22696;-71
2022/04/22 05:22:58;;;;;;;;;;;;;;;8.11;75.09;98028.64;108398;1271;23386;-71
2022/04/22 05:25:25;;;;;;;;;;;;;;;8.19;75.20;98032.05;108520;1271;22589;-71
2022/04/22 05:27:53;;;;;;;;;;;;;;;8.27;74.62;98034.50;108355;1271;22527;-72
2022/04/22 05:33:05;;;;;;;;;;;;;;;8.45;74.60;98032.98;108405;1271;22549;-70
2022/04/22 05:35:33;;;;;;;;;;;;;;;8.50;74.32;98028.83;108558;1271;25214;-73
2022/04/22 05:38:01;;;;;;;;;;;;;;;8.61;74.16;98023.13;108479;1271;22737;-71
2022/04/22 05:40:30;;;;;;;;;;;;;;;8.68;74.26;98022.30;108499;1271;24405;-71
2022/04/22 05:42:57;;;;;;;;;;;;;;;8.80;74.74;98021.99;108379;1271;24229;-73
2022/04/22 05:45:25;;;;;;;;;;;;;;;8.93;74.56;98021.24;108537;1271;26009;-71
2022/04/22 05:47:52;;;;;;;;;;;;;;;9.03;74.45;98016.44;108552;1271;22593;-71
2022/04/22 05:50:20;;;;;;;;;;;;;;;9.16;74.11;98015.89;108519;1270;22534;-71
2022/04/22 05:52:47;;;;;;;;;;;;;;;9.29;73.94;98010.23;108581;1270;22639;-75
2022/04/22 05:55:16;;;;;;;;;;;;;;;9.35;73.13;98016.26;108553;1271;22844;-73
2022/04/22 05:57:44;;;;;;;;;;;;;;;9.46;73.21;98018.63;108537;1271;22602;-74
2022/04/22 06:00:12;;;;;;;;;;;;;;;9.54;73.07;98019.47;108545;1270;22660;-72
2022/04/22 06:02:41;;;;;;;;;;;;;;;9.65;72.66;98015.85;108693;1271;22513;-72
2022/04/22 06:05:11;;;;;;;;;;;;;;;9.75;72.08;98013.25;108737;1271;23418;-74
2022/04/22 06:07:39;;;;;;;;;;;;;;;9.90;72.21;98012.85;108568;1271;22528;-71
2022/04/22 06:12:52;;;;;;;;;;;;;;;10.13;71.82;98006.30;108576;1270;22506;-73
2022/04/22 06:15:19;;;;;;;;;;;;;;;10.22;71.77;98004.27;108518;1271;22581;-71
2022/04/22 06:17:46;;;;;;;;;;;;;;;10.35;71.05;98006.27;108593;1271;22587;-71
2022/04/22 06:20:14;;;;;;;;;;;;;;;10.40;70.59;98009.59;108572;1271;22545;-74
2022/04/22 06:22:41;;;;;;;;;;;;;;;10.49;70.00;98008.84;108562;1271;22530;-76
2022/04/22 06:25:09;;;;;;;;;;;;;;;10.49;69.50;98006.77;108511;1271;22519;-74
2022/04/22 06:27:40;;;;;;;;;;;;;;;10.51;69.05;98008.39;108524;1271;27718;-75
2022/04/22 06:30:17;;;;;;;;;;;;;;;10.51;68.84;98004.20;108487;1271;23173;-75
2022/04/22 06:32:45;;;;;;;;;;;;;;;10.56;69.09;98004.92;108530;1271;22538;-74
2022/04/22 06:35:13;;;;;;;;;;;;;;;10.67;68.56;98004.73;108535;1271;22684;-76
2022/04/22 06:37:41;;;;;;;;;;;;;;;10.69;68.15;98002.19;108549;1271;22672;-77
2022/04/22 06:45:47;;;;;;;;;;;;;;;10.66;68.25;97999.98;108556;1271;24275;-72
2022/04/22 06:48:14;;;;;;;;;;;;;;;10.74;68.18;98001.61;108548;1270;22545;-72
2022/04/22 06:50:42;;;;;;;;;;;;;;;10.80;68.05;98004.30;108560;1271;22623;-77
2022/04/22 06:53:09;;;;;;;;;;;;;;;10.89;67.91;97994.20;108558;1271;26070;-73
2022/04/22 06:55:38;;;;;;;;;;;;;;;10.95;67.70;97997.39;108529;1271;25255;-74
2022/04/22 06:58:08;;;;;;;;;;;;;;;11.08;68.03;97995.64;108550;1271;22508;-77
2022/04/22 07:00:36;;;;;;;;;;;;;;;11.25;68.31;97999.60;108557;1271;22517;-77
2022/04/22 07:03:04;;;;;;;;;;;;;;;11.38;67.58;98001.21;108500;1271;22541;-72
2022/04/22 07:05:33;;;;;;;;;;;;;;;11.43;67.07;98004.67;108536;1271;22541;-71
2022/04/22 07:08:05;;;;;;;;;;;;;;;11.54;67.40;98005.00;108612;1271;25432;-72
2022/04/22 07:10:33;;;;;;;;;;;;;;;11.68;66.55;98006.12;108583;1271;22509;-72
2022/04/22 07:13:00;;;;;;;;;;;;;;;11.67;66.13;98013.16;108560;1271;22541;-71
2022/04/22 07:15:27;;;;;;;;;;;;;;;11.66;66.30;98013.45;108534;1271;22608;-72
2022/04/22 07:17:54;;;;;;;;;;;;;;;11.72;65.64;98011.95;108565;1271;25436;-72
2022/04/22 07:20:22;;;;;;;;;;;;;;;11.76;65.65;98009.15;108544;1271;22641;-72
2022/04/22 07:22:49;;;;;;;;;;;;;;;11.77;65.50;98004.90;108556;1271;22727;-70
2022/04/22 07:25:17;;;;;;;;;;;;;;;11.86;65.80;98008.04;108531;1271;25435;-71
2022/04/22 07:27:45;;;;;;;;;;;;;;;11.91;65.61;98011.12;108542;1269;22514;-70
2022/04/22 07:30:14;;;;;;;;;;;;;;;12.02;65.32;98011.56;108631;1271;24218;-71
2022/04/22 07:32:42;;;;;;;;;;;;;;;12.14;64.89;98012.20;108571;1271;22672;-73
2022/04/22 07:35:12;;;;;;;;;;;;;;;12.25;64.67;98013.08;108558;1271;22538;-70
2022/04/22 07:37:42;;;;;;;;;;;;;;;12.36;64.39;98016.13;108555;1271;22684;-70
2022/04/22 07:40:10;;;;;;;;;;;;;;;12.48;63.83;98015.23;108572;1271;22548;-72
2022/04/22 07:42:37;;;;;;;;;;;;;;;12.51;62.76;98008.33;108539;1271;22527;-70
2022/04/22 07:47:50;;;;;;;;;;;;;;;12.48;62.12;98003.52;108543;1271;26557;-71
2022/04/22 07:50:18;;;;;;;;;;;;;;;12.51;61.92;98002.16;108557;1271;22569;-70
2022/04/22 07:52:45;;;;;;;;;;;;;;;12.59;62.00;98001.14;108568;1271;22510;-70
2022/04/22 07:55:13;;;;;;;;;;;;;;;12.73;61.32;97999.08;108542;1271;22516;-70
2022/04/22 07:57:41;;;;;;;;;;;;;;;12.73;61.43;98004.36;108561;1271;22672;-70
2022/04/22 08:00:10;;;;;;;;;;;;;;;12.76;61.25;98003.42;108563;1271;22588;-70
2022/04/22 08:02:40;;;;;;;;;;;;;;;12.92;61.24;98002.37;108577;1271;22539;-71
2022/04/22 08:05:08;;;;;;;;;;;;;;;12.96;61.16;97998.70;108536;1271;22527;-70
2022/04/22 08:07:35;;;;;;;;;;;;;;;13.09;61.38;97999.13;108607;1271;22622;-70
2022/04/22 08:10:02;;;;;;;;;;;;;;;13.27;61.35;97997.52;108561;1271;25251;-72
2022/04/22 08:12:29;;;;;;;;;;;;;;;13.39;60.74;98001.73;108565;1271;25523;-70
2022/04/22 08:14:58;;;;;;;;;;;;;;;13.50;59.84;97997.56;108536;1271;25273;-70
2022/04/22 08:17:25;;;;;;;;;;;;;;;13.43;59.50;97995.21;108593;1271;25067;-70
2022/04/22 08:19:51;;;;;;;;;;;;;;;13.46;59.92;97996.19;108591;1270;22502;-70
2022/04/22 08:22:18;;;;;;;;;;;;;;;13.58;59.92;97996.20;108598;1271;22517;-70
2022/04/22 08:24:45;;;;;;;;;;;;;;;13.76;59.29;97997.77;108601;1271;22603;-73
2022/04/22 08:27:12;;;;;;;;;;;;;;;13.85;57.78;97991.13;108542;1271;22570;-71
2022/04/22 08:29:39;;;;;;;;;;;;;;;13.82;57.81;97988.27;108517;1271;22515;-70
2022/04/22 08:32:06;;;;;;;;;;;;;;;13.91;57.30;97985.27;108505;1271;22597;-71
2022/04/22 08:34:33;;;;;;;;;;;;;;;13.98;57.06;97983.36;108425;1271;23929;-71
2022/04/22 08:36:59;;;;;;;;;;;;;;;14.06;56.49;97983.58;108574;1271;22531;-71
2022/04/22 08:39:27;;;;;;;;;;;;;;;14.03;56.42;97980.33;108535;1271;22597;-69
2022/04/22 08:41:55;;;;;;;;;;;;;;;13.92;56.24;97980.94;108517;1271;22524;-76
2022/04/22 08:44:23;;;;;;;;;;;;;;;13.97;56.71;97981.23;108545;1271;22516;-70
2022/04/22 08:52:22;;;;;;;;;;;;;;;14.17;55.28;97979.88;108540;1271;22516;-69
2022/04/22 08:54:49;;;;;;;;;;;;;;;14.22;55.07;97977.37;108540;1271;22528;-70
2022/04/22 08:57:16;;;;;;;;;;;;;;;14.14;55.36;97978.58;108651;1271;23038;-70
2022/04/22 08:59:43;;;;;;;;;;;;;;;13.99;56.08;97976.83;108666;1271;22471;-75
2022/04/22 09:02:10;;;;;;;;;;;;;;;13.97;56.45;97980.00;108624;1271;25329;-71
2022/04/22 09:04:37;;;;;;;;;;;;;;;13.94;56.29;97980.05;108669;1271;22587;-72
2022/04/22 09:07:05;;;;;;;;;;;;;;;13.90;56.65;97977.23;108753;1270;22500;-72
2022/04/22 09:09:32;;;;;;;;;;;;;;;14.00;56.82;97972.66;108761;1271;22533;-73
2022/04/22 09:12:06;;;;;;;;;;;;;;;14.04;56.06;97974.98;108802;1270;22524;-74
2022/04/22 09:14:33;;;;;;;;;;;;;;;13.97;55.99;97971.55;108817;1271;22718;-72
2022/04/22 09:17:01;;;;;;;;;;;;;;;13.88;55.80;97966.91;108816;1271;22535;-72
2022/04/22 09:19:33;;;;;;;;;;;;;;;13.64;55.22;97966.29;108794;1271;22523;-78
2022/04/22 09:22:00;;;;;;;;;;;;;;;13.45;55.87;97965.48;108817;1271;22581;-72
2022/04/22 09:24:28;;;;;;;;;;;;;;;13.29;56.43;97965.55;108784;1271;22527;-73
2022/04/22 09:27:08;;;;;;;;;;;;;;;13.21;56.55;97956.55;108817;1271;22662;-77
2022/04/22 09:29:41;;;;;;;;;;;;;;;13.10;57.44;97959.79;108802;1270;22623;-76
2022/04/22 09:32:11;;;;;;;;;;;;;;;13.15;57.76;97963.20;108807;1271;22718;-76
2022/04/22 09:34:42;;;;;;;;;;;;;;;13.23;57.64;97963.80;108821;1271;22607;-76
2022/04/22 09:42:47;;;;;;;;;;;;;;;13.42;57.67;97957.51;108826;1271;24240;-74
2022/04/22 09:45:15;;;;;;;;;;;;;;;13.47;57.61;97963.90;108805;1271;22659;-74
2022/04/22 09:47:43;;;;;;;;;;;;;;;13.38;57.83;97958.64;108798;1271;22600;-73
2022/04/22 09:50:14;;;;;;;;;;;;;;;13.20;58.32;97961.44;108792;1268;22666;-73
2022/04/22 09:52:46;;;;;;;;;;;;;;;13.01;58.86;97964.56;108791;1271;22522;-71
2022/04/22 09:55:16;;;;;;;;;;;;;;;12.84;59.03;97971.97;108795;1271;22642;-78
2022/04/22 09:57:49;;;;;;;;;;;;;;;12.69;59.37;97966.81;108786;1271;24254;-72
2022/04/22 10:00:17;;;;;;;;;;;;;;;12.62;60.05;97967.87;108764;1271;22518;-71
2022/04/22 10:02:45;;;;;;;;;;;;;;;12.56;60.21;97971.01;108780;1271;22511;-74
2022/04/22 10:05:12;;;;;;;;;;;;;;;12.66;59.85;97967.52;108775;1270;22668;-72
2022/04/22 10:07:42;;;;;;;;;;;;;;;12.75;59.95;97970.65;108745;1271;22503;-73
2022/04/22 10:10:10;;;;;;;;;;;;;;;12.94;59.25;97969.21;108769;1270;26332;-72
2022/04/22 10:12:38;;;;;;;;;;;;;;;13.02;58.89;97977.23;108753;1271;22530;-77
2022/04/22 10:15:09;;;;;;;;;;;;;;;13.06;59.04;97980.25;108761;1271;22503;-75
2022/04/22 10:17:38;;;;;;;;;;;;;;;13.03;59.24;97982.91;108768;1271;23148;-74
2022/04/22 10:20:07;;;;;;;;;;;;;;;13.10;58.85;97983.02;108786;1271;22526;-72
2022/04/22 10:22:33;;;;;;;;;;;;;;;12.99;58.73;97975.42;108788;1271;23068;-71
2022/04/22 10:25:05;;;;;;;;;;;;;;;13.12;58.69;97979.70;108787;1271;22518;-75
2022/04/22 10:27:35;;;;;;;;;;;;;;;13.13;58.65;97976.48;108771;1271;22588;-73
2022/04/22 10:30:02;;;;;;;;;;;;;;;13.15;58.28;97979.27;108790;1271;22521;-70
2022/04/22 10:32:31;;;;;;;;;;;;;;;13.03;58.32;97981.37;108802;1271;22563;-71
2022/04/22 10:34:59;;;;;;;;;;;;;;;12.83;58.77;97987.97;108782;1271;22524;-72
2022/04/22 10:37:27;;;;;;;;;;;;;;;12.64;59.18;97992.52;108776;1271;22560;-71
2022/04/22 10:39:55;;;;;;;;;;;;;;;12.48;59.69;97993.89;108799;1270;22531;-73
2022/04/22 10:42:32;;;;;;;;;;;;;;;12.38;60.24;97996.77;108779;1271;22600;-71
2022/04/22 10:47:47;;;;;;;;;;;;;;;12.05;60.90;97995.11;108776;1271;22735;-71
2022/04/22 10:50:34;;;;;;;;;;;;;;;11.95;61.60;97993.51;108781;1271;22518;-73
2022/04/22 10:53:03;;;;;;;;;;;;;;;11.96;61.64;97987.50;108793;1271;22505;-71
2022/04/22 10:55:31;;;;;;;;;;;;;;;11.99;61.64;97988.52;108775;1270;22611;-70
2022/04/22 10:58:13;;;;;;;;;;;;;;;11.98;61.62;97987.66;108767;1271;22521;-71
2022/04/22 11:00:44;;;;;;;;;;;;;;;12.03;61.66;97989.17;108799;1271;22784;-75
2022/04/22 11:03:21;;;;;;;;;;;;;;;12.04;61.61;97989.64;108808;1271;22522;-77
2022/04/22 11:05:52;;;;;;;;;;;;;;;12.07;61.53;97995.67;108777;1271;22588;-71
2022/04/22 11:08:25;;;;;;;;;;;;;;;12.08;61.65;97990.39;108831;1270;22515;-80
2022/04/22 11:10:51;;;;;;;;;;;;;;;12.04;61.67;97984.59;108803;1271;22601;-75
2022/04/22 11:13:26;;;;;;;;;;;;;;;12.04;61.56;97979.34;108794;1271;22506;-71
2022/04/22 11:15:56;;;;;;;;;;;;;;;11.93;61.75;97981.45;108794;1270;22546;-74
2022/04/22 11:18:23;;;;;;;;;;;;;;;11.90;61.65;97975.27;108789;1270;22674;-75
2022/04/22 11:20:51;;;;;;;;;;;;;;;11.98;61.54;97967.10;108784;1270;22511;-71
2022/04/22 11:23:18;;;;;;;;;;;;;;;12.04;61.53;97969.20;108766;1271;25430;-71
2022/04/22 11:25:46;;;;;;;;;;;;;;;12.19;61.28;97962.42;108755;1271;22587;-71
2022/04/22 11:28:14;;;;;;;;;;;;;;;12.32;60.95;97965.85;108765;1271;22509;-71
2022/04/22 11:30:42;;;;;;;;;;;;;;;12.49;60.68;97967.31;108817;1271;22515;-73
2022/04/22 11:33:15;;;;;;;;;;;;;;;12.67;60.38;97956.26;108828;1271;26456;-72
2022/04/22 11:35:43;;;;;;;;;;;;;;;12.87;59.73;97952.16;108751;1271;22585;-73
2022/04/22 11:38:10;;;;;;;;;;;;;;;12.96;59.91;97955.37;108594;1271;22662;-72
2022/04/22 11:40:40;;;;;;;;;;;;;;;13.18;59.50;97952.13;108526;1271;24245;-70
2022/04/22 11:43:10;;;;;;;;;;;;;;;13.21;58.85;97947.54;108518;1271;22527;-73
2022/04/22 11:45:40;;;;;;;;;;;;;;;13.39;58.28;97948.36;108555;1271;22670;-68
2022/04/22 11:48:11;;;;;;;;;;;;;;;13.60;57.39;97945.09;108549;1271;22514;-71
2022/04/22 11:50:39;;;;;;;;;;;;;;;13.67;57.78;97945.22;108498;1271;22516;-70
2022/04/22 11:53:23;;;;;;;;;;;;;;;13.98;56.69;97945.95;108486;1271;22581;-72
2022/04/22 11:55:50;;;;;;;;;;;;;;;14.25;55.04;97942.73;108561;1271;27630;-71
2022/04/22 11:58:23;;;;;;;;;;;;;;;14.36;55.33;97937.25;108550;1271;22533;-72
2022/04/22 12:06:23;;;;;;;;;;;;;;;14.77;53.45;97930.94;108531;1268;22553;-72
2022/04/22 12:08:57;;;;;;;;;;;;;;;14.72;53.33;97923.56;108560;1271;22540;-72
2022/04/22 12:11:24;;;;;;;;;;;;;;;14.64;53.98;97923.95;108572;1271;23101;-75
2022/04/22 12:13:52;;;;;;;;;;;;;;;14.78;53.02;97918.85;108552;1270;22547;-73
2022/04/22 12:16:19;;;;;;;;;;;;;;;14.72;53.23;97916.51;108547;1271;22616;-74
2022/04/22 12:18:50;;;;;;;;;;;;;;;14.88;52.81;97912.42;108580;1271;22541;-74
2022/04/22 12:21:18;;;;;;;;;;;;;;;14.84;52.80;97912.77;108522;1270;23445;-72
2022/04/22 12:23:46;;;;;;;;;;;;;;;14.84;52.69;97918.21;108560;1270;24215;-71
2022/04/22 12:26:34;;;;;;;;;;;;;;;14.76;53.03;97915.09;108544;1271;22508;-72
2022/04/22 12:29:17;;;;;;;;;;;;;;;14.76;52.87;97913.35;108575;1271;22593;-70
2022/04/22 12:31:50;;;;;;;;;;;;;;;14.67;53.50;97914.40;108537;1271;22726;-70
2022/04/22 12:34:28;;;;;;;;;;;;;;;14.81;53.14;97913.40;108541;1271;22641;-71
2022/04/22 12:36:56;;;;;;;;;;;;;;;14.86;52.45;97907.53;108526;1271;22592;-70
2022/04/22 12:39:43;;;;;;;;;;;;;;;14.83;52.20;97898.54;108559;1271;22691;-71
2022/04/22 12:42:18;;;;;;;;;;;;;;;15.02;51.32;97894.90;108538;1271;22619;-74
2022/04/22 12:53:26;;;;;;;;;;;;;;;15.01;50.99;97885.58;108545;1271;22591;-73
2022/04/22 12:56:03;;;;;;;;;;;;;;;14.96;51.00;97887.84;108534;1268;25266;-71
2022/04/22 12:58:32;;;;;;;;;;;;;;;15.08;50.21;97884.05;108527;1271;22529;-71
2022/04/22 13:01:02;;;;;;;;;;;;;;;15.09;49.46;97878.90;108509;1271;22672;-70
2022/04/22 13:03:36;;;;;;;;;;;;;;;14.96;49.57;97881.08;108543;1271;22623;-70
2022/04/22 13:06:03;;;;;;;;;;;;;;;14.92;49.57;97878.19;108574;1271;25365;-70
2022/04/22 13:08:30;;;;;;;;;;;;;;;14.95;49.33;97880.70;108535;1271;22499;-70
2022/04/22 13:10:59;;;;;;;;;;;;;;;14.88;49.12;97879.29;108521;1271;22518;-70
2022/04/22 13:13:27;;;;;;;;;;;;;;;14.83;49.66;97879.39;108492;1271;22630;-71
2022/04/22 13:15:54;;;;;;;;;;;;;;;14.83;49.24;97880.59;108518;1271;23134;-71
2022/04/22 13:18:20;;;;;;;;;;;;;;;14.74;49.47;97877.83;108545;1271;22832;-76
2022/04/22 13:20:47;;;;;;;;;;;;;;;14.55;49.99;97878.57;108542;1271;22690;-70
2022/04/22 13:23:14;;;;;;;;;;;;;;;14.33;50.43;97879.90;108547;1271;22536;-74
2022/04/22 13:25:41;;;;;;;;;;;;;;;14.08;51.46;97884.98;108523;1271;22674;-72
2022/04/22 13:28:08;;;;;;;;;;;;;;;14.00;51.78;97886.23;108579;1271;24249;-69
2022/04/22 13:30:35;;;;;;;;;;;;;;;13.85;52.24;97884.55;108532;1271;22643;-77
2022/04/22 13:33:01;;;;;;;;;;;;;;;13.74;53.00;97887.83;108515;1271;23488;-72
2022/04/22 13:35:28;;;;;;;;;;;;;;;13.63;53.19;97896.02;108509;1271;22566;-69
2022/04/22 13:37:56;;;;;;;;;;;;;;;13.56;53.36;97898.02;108538;1271;25446;-69
2022/04/22 13:40:23;;;;;;;;;;;;;;;13.31;53.90;97898.00;108558;1268;22512;-69
2022/04/22 13:42:49;;;;;;;;;;;;;;;13.13;54.23;97899.70;108544;1271;22550;-70
2022/04/22 13:53:33;;;;;;;;;;;;;;;12.18;57.37;97903.15;108561;1271;22582;-71
2022/04/22 13:56:00;;;;;;;;;;;;;;;11.97;58.15;97898.11;108514;1271;27725;-70
2022/04/22 13:58:27;;;;;;;;;;;;;;;11.80;59.06;97908.41;108256;1271;342953;-71
2022/04/22 14:00:54;;;;;;;;;;;;;;;11.65;59.37;97912.05;108541;1271;22689;-71